createdAt,value
2018-05-24T00:01:32.597Z,16.82
2018-05-24T00:03:58.527Z,16.84
2018-05-24T00:06:24.454Z,16.83
2018-05-24T00:08:50.378Z,16.81
2018-05-24T00:11:16.304Z,16.76
2018-05-24T00:13:42.200Z,16.70
2018-05-24T00:16:08.123Z,16.64
2018-05-24T00:18:34.033Z,16.67
2018-05-24T00:20:59.981Z,16.61
2018-05-24T00:23:25.904Z,16.52
2018-05-24T00:25:51.844Z,16.56
2018-05-24T00:28:17.791Z,16.47
2018-05-24T00:30:43.724Z,16.49
2018-05-24T00:33:09.652Z,16.40
2018-05-24T00:35:35.578Z,16.43
2018-05-24T00:38:01.510Z,16.42
2018-05-24T00:40:27.424Z,16.44
2018-05-24T00:42:53.366Z,16.34
2018-05-24T00:45:19.280Z,16.46
2018-05-24T00:47:45.217Z,16.49
2018-05-24T00:50:11.127Z,16.46
2018-05-24T00:52:37.061Z,16.42
2018-05-24T00:58:01.903Z,16.49
2018-05-24T01:00:27.822Z,16.38
2018-05-24T01:02:53.748Z,16.39
2018-05-24T01:05:19.680Z,16.39
2018-05-24T01:07:45.639Z,16.21
2018-05-24T01:10:11.563Z,16.03
2018-05-24T01:12:37.473Z,15.99
2018-05-24T01:15:03.452Z,16.02
2018-05-24T01:17:29.366Z,16.03
2018-05-24T01:19:55.307Z,16.09
2018-05-24T01:22:21.213Z,16.00
2018-05-24T01:24:47.133Z,16.01
2018-05-24T01:27:13.062Z,16.08
2018-05-24T01:29:38.983Z,16.07
2018-05-24T01:32:04.900Z,16.05
2018-05-24T01:34:30.843Z,16.01
2018-05-24T01:37:09.036Z,15.86
2018-05-24T01:39:34.998Z,15.65
2018-05-24T01:42:00.904Z,15.50
2018-05-24T01:44:26.812Z,15.47
2018-05-24T01:46:52.738Z,15.42
2018-05-24T01:49:18.669Z,15.47
2018-05-24T01:51:44.602Z,15.43
2018-05-24T01:54:10.521Z,15.38
2018-05-24T01:56:36.455Z,15.31
2018-05-24T01:59:02.409Z,15.35
2018-05-24T02:01:28.326Z,15.38
2018-05-24T02:03:54.250Z,15.37
2018-05-24T02:06:20.175Z,15.28
2018-05-24T02:08:46.115Z,15.31
2018-05-24T02:11:12.035Z,15.19
2018-05-24T02:13:37.949Z,15.16
2018-05-24T02:16:03.872Z,15.12
2018-05-24T02:18:29.798Z,15.05
2018-05-24T02:20:55.746Z,15.15
2018-05-24T02:23:21.675Z,15.08
2018-05-24T02:25:47.593Z,15.01
2018-05-24T02:28:13.519Z,15.06
2018-05-24T02:30:39.420Z,15.06
2018-05-24T02:33:05.336Z,14.90
2018-05-24T02:35:31.301Z,14.89
2018-05-24T02:37:57.231Z,14.89
2018-05-24T02:40:23.214Z,14.86
2018-05-24T02:42:49.147Z,14.84
2018-05-24T02:45:15.102Z,14.92
2018-05-24T02:47:41.004Z,14.88
2018-05-24T02:50:06.926Z,14.87
2018-05-24T02:52:32.839Z,14.81
2018-05-24T02:54:58.794Z,14.81
2018-05-24T02:57:24.721Z,14.80
2018-05-24T02:59:50.637Z,14.73
2018-05-24T03:02:16.567Z,14.72
2018-05-24T03:04:42.481Z,14.71
2018-05-24T03:07:08.423Z,14.72
2018-05-24T03:09:34.348Z,14.75
2018-05-24T03:12:00.268Z,14.78
2018-05-24T03:14:26.232Z,14.85
2018-05-24T03:16:52.173Z,14.80
2018-05-24T03:19:18.097Z,14.73
2018-05-24T03:21:44.043Z,14.72
2018-05-24T03:24:09.956Z,14.75
2018-05-24T03:26:35.922Z,14.75
2018-05-24T03:29:01.841Z,14.77
2018-05-24T03:31:27.768Z,14.81
2018-05-24T03:33:53.667Z,14.80
2018-05-24T03:36:19.587Z,14.74
2018-05-24T03:38:45.531Z,14.78
2018-05-24T03:41:11.455Z,14.85
2018-05-24T03:43:37.379Z,14.97
2018-05-24T03:46:03.315Z,15.05
2018-05-24T03:48:29.267Z,15.02
2018-05-24T03:50:55.189Z,15.07
2018-05-24T03:53:21.136Z,15.12
2018-05-24T03:55:47.051Z,15.16
2018-05-24T03:58:12.976Z,15.18
2018-05-24T04:00:51.288Z,15.17
2018-05-24T04:03:29.449Z,15.18
2018-05-24T04:05:55.365Z,14.86
2018-05-24T04:08:21.288Z,14.94
2018-05-24T04:10:47.225Z,15.11
2018-05-24T04:13:13.136Z,15.11
2018-05-24T04:15:39.060Z,15.18
2018-05-24T04:18:04.962Z,15.08
2018-05-24T04:20:30.896Z,14.94
2018-05-24T04:22:56.810Z,15.08
2018-05-24T04:25:22.752Z,15.16
2018-05-24T04:27:48.696Z,15.22
2018-05-24T04:30:14.610Z,15.12
2018-05-24T04:32:40.528Z,15.16
2018-05-24T04:35:06.456Z,15.17
2018-05-24T04:37:32.400Z,15.03
2018-05-24T04:39:58.318Z,15.02
2018-05-24T04:42:24.266Z,14.98
2018-05-24T04:44:50.210Z,14.97
2018-05-24T04:47:16.142Z,15.00
2018-05-24T04:49:42.057Z,14.97
2018-05-24T04:52:08.047Z,15.06
2018-05-24T04:54:33.922Z,15.15
2018-05-24T04:56:59.843Z,15.17
2018-05-24T04:59:25.789Z,15.27
2018-05-24T05:01:51.714Z,15.30
2018-05-24T05:04:17.641Z,15.38
2018-05-24T05:06:43.569Z,15.24
2018-05-24T05:09:09.512Z,15.29
2018-05-24T05:11:35.442Z,15.32
2018-05-24T05:14:01.393Z,15.26
2018-05-24T05:16:27.325Z,15.34
2018-05-24T05:18:53.255Z,15.32
2018-05-24T05:21:19.185Z,15.39
2018-05-24T05:23:45.088Z,15.38
2018-05-24T05:26:11.042Z,15.43
2018-05-24T05:28:36.953Z,15.46
2018-05-24T05:31:02.979Z,15.53
2018-05-24T05:33:28.921Z,15.54
2018-05-24T05:35:54.856Z,15.56
2018-05-24T05:38:20.829Z,15.65
2018-05-24T05:40:46.690Z,15.68
2018-05-24T05:43:12.628Z,15.73
2018-05-24T05:45:38.563Z,15.90
2018-05-24T05:48:04.484Z,15.95
2018-05-24T05:50:30.384Z,16.00
2018-05-24T05:52:56.312Z,16.16
2018-05-24T05:55:22.232Z,16.20
2018-05-24T05:57:48.229Z,16.36
2018-05-24T06:00:14.187Z,16.44
2018-05-24T06:02:40.135Z,16.56
2018-05-24T06:05:06.070Z,16.63
2018-05-24T06:07:31.989Z,16.74
2018-05-24T06:09:57.895Z,16.86
2018-05-24T06:12:23.844Z,16.94
2018-05-24T06:14:49.773Z,16.97
2018-05-24T06:17:15.696Z,17.03
2018-05-24T06:19:41.645Z,17.03
2018-05-24T06:22:07.547Z,17.08
2018-05-24T06:24:33.463Z,17.14
2018-05-24T06:26:59.393Z,17.22
2018-05-24T06:29:25.317Z,17.31
2018-05-24T06:31:51.233Z,17.35
2018-05-24T06:34:17.151Z,17.40
2018-05-24T06:36:43.077Z,17.53
2018-05-24T06:39:09.032Z,17.63
2018-05-24T06:41:34.937Z,17.70
2018-05-24T06:44:00.834Z,17.76
2018-05-24T06:46:26.824Z,17.85
2018-05-24T06:48:52.716Z,17.97
2018-05-24T06:51:18.643Z,18.07
2018-05-24T06:53:44.593Z,18.17
2018-05-24T06:56:10.477Z,18.23
2018-05-24T06:58:36.395Z,18.33
2018-05-24T07:01:02.335Z,18.39
2018-05-24T07:03:28.253Z,18.55
2018-05-24T07:05:54.187Z,18.66
2018-05-24T07:08:20.113Z,18.81
2018-05-24T07:10:46.028Z,18.92
2018-05-24T07:13:11.972Z,19.00
2018-05-24T07:15:37.892Z,19.10
2018-05-24T07:18:03.828Z,19.09
2018-05-24T07:20:29.778Z,19.22
2018-05-24T07:22:55.714Z,19.36
2018-05-24T07:25:21.616Z,19.49
2018-05-24T07:27:47.545Z,19.69
2018-05-24T07:30:13.472Z,19.86
2018-05-24T07:32:39.400Z,19.92
2018-05-24T07:35:05.365Z,20.14
2018-05-24T07:37:31.283Z,20.18
2018-05-24T07:39:57.211Z,20.33
2018-05-24T07:42:23.124Z,20.56
2018-05-24T07:44:49.048Z,20.78
2018-05-24T07:47:14.994Z,20.76
2018-05-24T07:49:40.924Z,20.81
2018-05-24T07:52:06.829Z,20.84
2018-05-24T07:54:32.771Z,20.92
2018-05-24T07:56:58.689Z,20.95
2018-05-24T07:59:24.643Z,21.15
2018-05-24T08:01:50.605Z,21.24
2018-05-24T08:04:16.513Z,21.29
2018-05-24T08:06:44.107Z,21.34
2018-05-24T08:09:10.140Z,21.30
2018-05-24T08:11:36.089Z,21.36
2018-05-24T08:14:02.005Z,21.43
2018-05-24T08:16:27.920Z,21.41
2018-05-24T08:18:53.899Z,21.43
2018-05-24T08:21:19.823Z,21.38
2018-05-24T08:23:45.760Z,21.41
2018-05-24T08:26:11.680Z,21.38
2018-05-24T08:28:37.637Z,21.40
2018-05-24T08:31:03.621Z,21.45
2018-05-24T08:33:29.556Z,21.51
2018-05-24T08:35:55.480Z,21.51
2018-05-24T08:38:21.390Z,21.65
2018-05-24T08:40:47.304Z,21.73
2018-05-24T08:43:13.256Z,21.77
2018-05-24T08:45:39.180Z,21.86
2018-05-24T08:48:05.097Z,21.89
2018-05-24T08:50:31.002Z,21.92
2018-05-24T08:52:56.950Z,22.02
2018-05-24T08:55:22.872Z,22.16
2018-05-24T08:57:48.780Z,22.19
2018-05-24T09:00:14.759Z,22.16
2018-05-24T09:02:40.680Z,22.25
2018-05-24T09:05:06.618Z,22.31
2018-05-24T09:07:32.524Z,22.46
2018-05-24T09:09:58.469Z,22.57
2018-05-24T09:12:24.373Z,22.62
2018-05-24T09:14:50.295Z,22.60
2018-05-24T09:17:16.211Z,22.69
2018-05-24T09:19:42.144Z,22.71
2018-05-24T09:22:08.064Z,23.03
2018-05-24T09:24:34.043Z,23.03
2018-05-24T09:26:59.968Z,23.01
2018-05-24T09:29:25.988Z,22.99
2018-05-24T09:31:51.933Z,23.09
2018-05-24T09:34:17.865Z,23.15
2018-05-24T09:36:43.791Z,23.14
2018-05-24T09:39:09.697Z,23.25
2018-05-24T09:41:35.615Z,23.52
2018-05-24T09:44:01.572Z,23.67
2018-05-24T09:46:27.491Z,23.61
2018-05-24T09:48:53.420Z,23.70
2018-05-24T09:51:19.364Z,23.69
2018-05-24T09:53:45.291Z,23.59
2018-05-24T09:56:11.207Z,23.52
2018-05-24T09:58:37.224Z,23.51
2018-05-24T10:01:03.158Z,23.57
2018-05-24T10:03:29.064Z,23.61
2018-05-24T10:05:54.986Z,23.73
2018-05-24T10:08:20.907Z,23.86
2018-05-24T10:10:46.847Z,23.81
2018-05-24T10:13:12.804Z,24.05
2018-05-24T10:15:38.735Z,24.18
2018-05-24T10:18:04.654Z,24.23
2018-05-24T10:20:30.613Z,24.40
2018-05-24T10:22:56.524Z,24.41
2018-05-24T10:25:22.466Z,24.30
2018-05-24T10:27:48.409Z,24.25
2018-05-24T10:30:14.323Z,24.06
2018-05-24T10:32:40.268Z,24.24
2018-05-24T10:35:06.189Z,24.30
2018-05-24T10:37:32.121Z,24.45
2018-05-24T10:39:58.020Z,24.53
2018-05-24T10:42:23.978Z,24.58
2018-05-24T10:44:49.916Z,24.59
2018-05-24T10:47:15.888Z,24.70
2018-05-24T10:49:41.807Z,24.65
2018-05-24T10:52:07.751Z,24.98
2018-05-24T10:54:33.702Z,24.89
2018-05-24T10:56:59.640Z,24.93
2018-05-24T10:59:25.604Z,24.92
2018-05-24T11:01:51.489Z,24.87
2018-05-24T11:04:17.431Z,25.12
2018-05-24T11:06:43.350Z,25.51
2018-05-24T11:09:09.293Z,25.82
2018-05-24T11:11:35.220Z,26.22
2018-05-24T11:14:01.157Z,26.35
2018-05-24T11:16:27.088Z,26.70
2018-05-24T11:18:53.051Z,27.18
2018-05-24T11:21:19.059Z,27.33
2018-05-24T11:23:45.011Z,27.59
2018-05-24T11:26:10.944Z,27.88
2018-05-24T11:28:36.870Z,27.81
2018-05-24T11:31:02.823Z,27.99
2018-05-24T11:33:28.762Z,27.51
2018-05-24T11:35:54.681Z,27.22
2018-05-24T11:38:20.584Z,27.20
2018-05-24T11:40:46.506Z,27.66
2018-05-24T11:43:12.516Z,28.23
2018-05-24T11:45:38.338Z,28.32
2018-05-24T11:48:04.256Z,28.61
2018-05-24T11:50:30.184Z,29.15
2018-05-24T11:52:56.175Z,29.07
2018-05-24T11:55:22.111Z,28.86
2018-05-24T11:57:48.040Z,29.23
2018-05-24T12:00:13.959Z,29.22
2018-05-24T12:02:39.906Z,29.00
2018-05-24T12:05:05.818Z,29.37
2018-05-24T12:07:32.093Z,29.86
2018-05-24T12:09:58.018Z,29.89
2018-05-24T12:12:23.926Z,29.09
2018-05-24T12:14:49.868Z,28.80
2018-05-24T12:17:15.805Z,27.95
2018-05-24T12:19:41.774Z,29.07
2018-05-24T12:22:07.704Z,29.29
2018-05-24T12:24:33.631Z,29.74
2018-05-24T12:26:59.549Z,29.25
2018-05-24T12:29:25.512Z,29.82
2018-05-24T12:31:51.437Z,30.64
2018-05-24T12:34:17.368Z,30.82
2018-05-24T12:36:43.292Z,30.34
2018-05-24T12:39:09.207Z,30.63
2018-05-24T12:41:35.168Z,30.28
2018-05-24T12:44:01.093Z,30.91
2018-05-24T12:46:27.021Z,30.27
2018-05-24T12:48:53.072Z,30.33
2018-05-24T12:51:18.954Z,30.47
2018-05-24T12:53:44.883Z,30.27
2018-05-24T12:56:10.841Z,29.91
2018-05-24T12:58:51.697Z,29.21
2018-05-24T13:01:17.637Z,30.10
2018-05-24T13:03:43.585Z,30.46
2018-05-24T13:06:09.487Z,29.94
2018-05-24T13:08:35.421Z,29.81
2018-05-24T13:11:01.354Z,30.50
2018-05-24T13:13:27.308Z,30.71
2018-05-24T13:15:53.217Z,30.53
2018-05-24T13:18:19.149Z,29.23
2018-05-24T13:20:45.082Z,28.55
2018-05-24T13:23:10.989Z,28.39
2018-05-24T13:25:36.920Z,28.40
2018-05-24T13:28:02.867Z,28.20
2018-05-24T13:30:28.786Z,27.99
2018-05-24T13:32:54.701Z,27.41
2018-05-24T13:35:20.642Z,27.59
2018-05-24T13:37:46.590Z,27.88
2018-05-24T13:40:12.509Z,27.95
2018-05-24T13:42:38.464Z,27.82
2018-05-24T13:45:04.464Z,27.36
2018-05-24T13:47:30.371Z,27.85
2018-05-24T13:49:56.290Z,27.77
2018-05-24T13:52:22.252Z,28.04
2018-05-24T13:54:48.151Z,28.02
2018-05-24T13:57:14.161Z,27.83
2018-05-24T13:59:40.097Z,27.65
2018-05-24T14:02:06.019Z,27.59
2018-05-24T14:04:31.947Z,27.73
2018-05-24T14:06:57.857Z,27.73
2018-05-24T14:09:23.842Z,27.77
2018-05-24T14:11:49.741Z,27.46
2018-05-24T14:14:15.699Z,27.75
2018-05-24T14:16:41.621Z,27.82
2018-05-24T14:19:07.589Z,27.72
2018-05-24T14:21:33.534Z,27.94
2018-05-24T14:23:59.459Z,28.14
2018-05-24T14:26:25.380Z,27.94
2018-05-24T14:28:51.319Z,27.95
2018-05-24T14:31:17.241Z,27.61
2018-05-24T14:33:43.214Z,27.64
2018-05-24T14:36:09.170Z,28.46
2018-05-24T14:38:35.103Z,28.40
2018-05-24T14:41:01.059Z,28.80
2018-05-24T14:43:26.980Z,29.16
2018-05-24T14:45:52.932Z,29.21
2018-05-24T14:48:18.848Z,28.74
2018-05-24T14:50:44.768Z,28.22
2018-05-24T14:53:10.704Z,28.17
2018-05-24T14:55:36.695Z,28.64
2018-05-24T14:58:02.637Z,28.85
2018-05-24T15:00:28.587Z,28.48
2018-05-24T15:02:54.507Z,28.94
2018-05-24T15:05:20.430Z,29.36
2018-05-24T15:07:46.374Z,29.44
2018-05-24T15:10:12.312Z,29.44
2018-05-24T15:12:38.250Z,29.42
2018-05-24T15:15:04.154Z,28.85
2018-05-24T15:17:30.090Z,28.47
2018-05-24T15:19:56.031Z,28.34
2018-05-24T15:22:21.999Z,28.78
2018-05-24T15:24:47.923Z,28.56
2018-05-24T15:27:13.849Z,28.55
2018-05-24T15:29:39.768Z,28.37
2018-05-24T15:32:05.877Z,28.23
2018-05-24T15:34:31.802Z,28.08
2018-05-24T15:36:57.718Z,27.61
2018-05-24T15:39:23.656Z,27.41
2018-05-24T15:41:49.558Z,27.25
2018-05-24T15:44:15.504Z,27.02
2018-05-24T15:46:41.432Z,27.05
2018-05-24T15:49:07.361Z,27.59
2018-05-24T15:51:33.297Z,28.65
2018-05-24T15:53:59.209Z,29.06
2018-05-24T15:56:25.117Z,29.60
2018-05-24T15:58:51.053Z,29.26
2018-05-24T16:01:16.994Z,28.70
2018-05-24T16:03:42.936Z,28.99
2018-05-24T16:06:08.887Z,29.23
2018-05-24T16:08:34.826Z,29.17
2018-05-24T16:11:00.755Z,28.73
2018-05-24T16:13:26.693Z,28.34
2018-05-24T16:15:52.634Z,27.66
2018-05-24T16:18:18.572Z,27.53
2018-05-24T16:20:44.521Z,27.28
2018-05-24T16:23:10.466Z,27.10
2018-05-24T16:25:36.426Z,27.31
2018-05-24T16:28:02.368Z,27.14
2018-05-24T16:30:28.336Z,27.23
2018-05-24T16:32:54.256Z,27.24
2018-05-24T16:35:20.193Z,26.84
2018-05-24T16:37:46.158Z,26.79
2018-05-24T16:40:12.085Z,26.80
2018-05-24T16:42:38.024Z,26.70
2018-05-24T16:45:03.943Z,26.68
2018-05-24T16:47:29.937Z,26.65
2018-05-24T16:49:55.860Z,26.55
2018-05-24T16:52:21.827Z,26.49
2018-05-24T16:54:47.761Z,26.32
2018-05-24T16:57:13.703Z,26.34
2018-05-24T16:59:39.646Z,26.25
2018-05-24T17:02:05.574Z,26.09
2018-05-24T17:04:31.526Z,26.17
2018-05-24T17:06:57.520Z,26.12
2018-05-24T17:09:23.497Z,26.06
2018-05-24T17:11:49.485Z,26.01
2018-05-24T17:14:15.430Z,25.86
2018-05-24T17:16:41.367Z,25.94
2018-05-24T17:19:07.333Z,25.64
2018-05-24T17:21:33.277Z,25.67
2018-05-24T17:23:59.210Z,25.51
2018-05-24T17:26:25.216Z,25.42
2018-05-24T17:28:51.172Z,25.47
2018-05-24T17:31:17.134Z,25.39
2018-05-24T17:33:43.072Z,25.42
2018-05-24T17:36:09.049Z,25.29
2018-05-24T17:38:35.290Z,25.14
2018-05-24T17:41:01.225Z,25.10
2018-05-24T17:43:27.218Z,25.06
2018-05-24T17:45:53.155Z,25.01
2018-05-24T17:48:19.135Z,25.00
2018-05-24T17:50:45.073Z,24.83
2018-05-24T17:53:11.851Z,24.70
2018-05-24T17:55:37.772Z,24.63
2018-05-24T17:58:03.704Z,24.58
2018-05-24T18:00:29.748Z,24.55
2018-05-24T18:02:55.781Z,24.44
2018-05-24T18:05:21.844Z,24.42
2018-05-24T18:07:47.796Z,24.31
2018-05-24T18:10:13.798Z,24.24
2018-05-24T18:12:39.757Z,24.14
2018-05-24T18:15:05.689Z,23.98
2018-05-24T18:17:31.657Z,23.92
2018-05-24T18:19:57.714Z,23.91
2018-05-24T18:22:23.662Z,23.80
2018-05-24T18:24:49.645Z,23.76
2018-05-24T18:27:15.585Z,23.67
2018-05-24T18:29:41.907Z,23.65
2018-05-24T18:32:08.671Z,23.68
2018-05-24T18:34:34.667Z,23.63
2018-05-24T18:37:00.722Z,23.63
2018-05-24T18:39:26.695Z,23.45
2018-05-24T18:41:52.687Z,23.45
2018-05-24T18:44:18.757Z,23.37
2018-05-24T18:46:44.769Z,23.32
2018-05-24T18:49:10.762Z,23.25
2018-05-24T18:51:36.817Z,23.20
2018-05-24T18:54:02.899Z,23.16
2018-05-24T18:56:29.130Z,22.99
2018-05-24T18:58:55.284Z,22.97
2018-05-24T19:01:21.204Z,22.86
2018-05-24T19:03:47.288Z,22.79
2018-05-24T19:06:14.174Z,22.77
2018-05-24T19:08:41.051Z,22.74
2018-05-24T19:11:07.160Z,22.69
2018-05-24T19:13:33.194Z,22.60
2018-05-24T19:15:59.526Z,22.54
2018-05-24T19:18:25.464Z,22.46
2018-05-24T19:20:51.399Z,22.46
2018-05-24T19:23:17.396Z,22.42
2018-05-24T19:25:43.406Z,22.40
2018-05-24T19:28:09.406Z,22.29
2018-05-24T19:30:35.463Z,22.25
2018-05-24T19:33:01.462Z,22.20
2018-05-24T19:35:27.529Z,22.17
2018-05-24T19:37:53.517Z,22.15
2018-05-24T19:40:19.449Z,22.06
2018-05-24T19:42:45.462Z,22.05
2018-05-24T19:45:11.404Z,21.99
2018-05-24T19:47:37.362Z,22.00
2018-05-24T19:50:03.301Z,22.02
2018-05-24T19:52:29.912Z,21.99
2018-05-24T19:54:55.910Z,21.96
2018-05-24T19:57:21.889Z,21.82
2018-05-24T19:59:47.833Z,21.77
2018-05-24T20:02:13.816Z,21.70
2018-05-24T20:04:39.757Z,21.58
2018-05-24T20:07:05.731Z,21.62
2018-05-24T20:09:31.653Z,21.61
2018-05-24T20:11:57.567Z,21.54
2018-05-24T20:14:23.521Z,21.53
2018-05-24T20:16:49.445Z,21.51
2018-05-24T20:19:15.380Z,21.48
2018-05-24T20:21:41.321Z,21.39
2018-05-24T20:24:07.263Z,21.35
2018-05-24T20:26:33.215Z,21.21
2018-05-24T20:28:59.160Z,21.25
2018-05-24T20:31:25.108Z,21.22
2018-05-24T20:33:51.021Z,21.22
2018-05-24T20:36:16.983Z,21.11
2018-05-24T20:38:42.894Z,21.10
2018-05-24T20:41:08.837Z,21.09
2018-05-24T20:43:34.759Z,21.13
2018-05-24T20:46:00.711Z,21.08
2018-05-24T20:48:26.650Z,21.10
2018-05-24T20:50:52.576Z,21.14
2018-05-24T20:53:18.548Z,21.11
2018-05-24T20:55:44.451Z,21.13
2018-05-24T20:58:10.371Z,21.08
2018-05-24T21:00:36.288Z,21.06
2018-05-24T21:03:02.217Z,20.95
2018-05-24T21:05:28.124Z,21.03
2018-05-24T21:07:54.071Z,20.98
2018-05-24T21:10:20.026Z,20.95
2018-05-24T21:12:45.942Z,21.02
2018-05-24T21:15:11.883Z,20.99
2018-05-24T21:17:37.816Z,20.98
2018-05-24T21:20:03.748Z,20.89
2018-05-24T21:22:29.694Z,20.85
2018-05-24T21:24:55.632Z,20.86
2018-05-24T21:27:21.558Z,20.83
2018-05-24T21:29:47.498Z,20.84
2018-05-24T21:32:13.442Z,20.83
2018-05-24T21:34:39.382Z,20.72
2018-05-24T21:37:05.305Z,20.78
2018-05-24T21:39:31.238Z,20.75
2018-05-24T21:41:57.175Z,20.78
2018-05-24T21:44:23.103Z,20.73
2018-05-24T21:46:49.031Z,20.64
2018-05-24T21:49:14.959Z,20.63
2018-05-24T21:51:40.892Z,20.59
2018-05-24T21:54:06.807Z,20.60
2018-05-24T21:56:32.747Z,20.55
2018-05-24T21:58:58.697Z,20.53
2018-05-24T22:01:24.623Z,20.45
2018-05-24T22:03:50.599Z,20.48
2018-05-24T22:06:16.576Z,20.48
2018-05-24T22:08:42.506Z,20.35
2018-05-24T22:11:08.447Z,20.24
2018-05-24T22:13:34.392Z,20.14
2018-05-24T22:16:00.366Z,20.07
2018-05-24T22:18:26.346Z,20.06
2018-05-24T22:23:45.116Z,20.02
2018-05-24T22:26:11.045Z,19.91
2018-05-24T22:31:29.550Z,19.86
2018-05-24T22:33:55.460Z,19.76
2018-05-24T22:36:21.383Z,19.71
2018-05-24T22:38:47.301Z,19.65
2018-05-24T22:41:13.221Z,19.58
2018-05-24T22:43:39.157Z,19.56
2018-05-24T22:46:05.066Z,19.49
2018-05-24T22:48:30.964Z,19.34
2018-05-24T22:50:56.901Z,19.35
2018-05-24T22:53:22.800Z,19.20
2018-05-24T22:58:20.433Z,19.04
2018-05-24T23:00:46.374Z,19.00
2018-05-24T23:03:12.306Z,18.90
2018-05-24T23:05:38.216Z,18.87
2018-05-24T23:08:04.150Z,18.83
2018-05-24T23:10:30.065Z,18.75
2018-05-24T23:12:56.003Z,18.83
2018-05-24T23:15:21.901Z,18.74
2018-05-24T23:17:47.858Z,18.76
2018-05-24T23:20:13.764Z,18.74
2018-05-24T23:22:39.663Z,18.73
2018-05-24T23:25:05.590Z,18.78
2018-05-24T23:27:31.529Z,18.68
2018-05-24T23:29:57.427Z,18.75
2018-05-24T23:32:23.355Z,18.73
2018-05-24T23:34:49.283Z,18.74
2018-05-24T23:37:15.205Z,18.61
2018-05-24T23:39:41.170Z,18.59
2018-05-24T23:42:07.078Z,18.66
2018-05-24T23:44:32.993Z,18.59
2018-05-24T23:46:58.910Z,18.60
2018-05-24T23:49:24.842Z,18.56
2018-05-24T23:51:50.746Z,18.61
2018-05-24T23:54:16.666Z,18.53
2018-05-24T23:56:42.628Z,18.57
2018-05-24T23:59:08.545Z,18.54
